sensor_id;sensor_type;location;lat;lon;timestamp;P1;durP1;ratioP1;P2;durP2;ratioP2
4939;SDS011;2485;49.326;7.214;2022-09-03T00:01:26;2.20;;;1.40;;
4939;SDS011;2485;49.326;7.214;2022-09-03T00:04:15;2.10;;;1.90;;
4939;SDS011;2485;49.326;7.214;2022-09-03T00:19:23;4.03;;;2.03;;
4939;SDS011;2485;49.326;7.214;2022-09-03T00:22:22;2.67;;;2.10;;
4939;SDS011;2485;49.326;7.214;2022-09-03T00:25:11;6.03;;;1.80;;
4939;SDS011;2485;49.326;7.214;2022-09-03T00:27:47;3.40;;;1.90;;
4939;SDS011;2485;49.326;7.214;2022-09-03T00:30:51;2.50;;;1.93;;
4939;SDS011;2485;49.326;7.214;2022-09-03T00:43:02;4.97;;;2.07;;
4939;SDS011;2485;49.326;7.214;2022-09-03T00:45:37;2.83;;;1.77;;
4939;SDS011;2485;49.326;7.214;2022-09-03T00:48:20;3.93;;;2.00;;
4939;SDS011;2485;49.326;7.214;2022-09-03T00:51:07;1.97;;;1.70;;
4939;SDS011;2485;49.326;7.214;2022-09-03T00:53:48;2.60;;;1.77;;
4939;SDS011;2485;49.326;7.214;2022-09-03T00:56:44;3.43;;;2.03;;
4939;SDS011;2485;49.326;7.214;2022-09-03T01:02:43;2.60;;;1.80;;
4939;SDS011;2485;49.326;7.214;2022-09-03T01:05:33;4.23;;;1.90;;
4939;SDS011;2485;49.326;7.214;2022-09-03T01:08:34;2.60;;;2.03;;
4939;SDS011;2485;49.326;7.214;2022-09-03T01:11:26;4.23;;;2.07;;
4939;SDS011;2485;49.326;7.214;2022-09-03T01:14:20;6.80;;;2.37;;
4939;SDS011;2485;49.326;7.214;2022-09-03T01:17:18;2.50;;;2.13;;
4939;SDS011;2485;49.326;7.214;2022-09-03T01:20:11;2.43;;;2.20;;
4939;SDS011;2485;49.326;7.214;2022-09-03T01:26:01;4.27;;;2.37;;
4939;SDS011;2485;49.326;7.214;2022-09-03T01:31:31;2.43;;;1.90;;
4939;SDS011;2485;49.326;7.214;2022-09-03T01:34:33;2.20;;;2.00;;
4939;SDS011;2485;49.326;7.214;2022-09-03T01:37:25;2.53;;;2.00;;
4939;SDS011;2485;49.326;7.214;2022-09-03T01:40:05;2.43;;;1.93;;
4939;SDS011;2485;49.326;7.214;2022-09-03T01:42:47;2.70;;;1.90;;
4939;SDS011;2485;49.326;7.214;2022-09-03T01:45:42;2.80;;;1.90;;
4939;SDS011;2485;49.326;7.214;2022-09-03T01:57:38;2.33;;;2.00;;
4939;SDS011;2485;49.326;7.214;2022-09-03T02:00:25;5.57;;;1.70;;
4939;SDS011;2485;49.326;7.214;2022-09-03T02:03:05;4.40;;;2.33;;
4939;SDS011;2485;49.326;7.214;2022-09-03T02:05:38;3.30;;;2.10;;
4939;SDS011;2485;49.326;7.214;2022-09-03T02:11:18;2.50;;;1.90;;
4939;SDS011;2485;49.326;7.214;2022-09-03T02:14:17;3.50;;;2.50;;
4939;SDS011;2485;49.326;7.214;2022-09-03T02:26:58;5.47;;;2.47;;
4939;SDS011;2485;49.326;7.214;2022-09-03T02:29:38;3.30;;;2.00;;
4939;SDS011;2485;49.326;7.214;2022-09-03T02:32:29;6.57;;;2.13;;
4939;SDS011;2485;49.326;7.214;2022-09-03T02:35:25;6.10;;;1.93;;
4939;SDS011;2485;49.326;7.214;2022-09-03T02:37:56;2.90;;;2.20;;
4939;SDS011;2485;49.326;7.214;2022-09-03T02:43:12;6.27;;;2.80;;
4939;SDS011;2485;49.326;7.214;2022-09-03T02:46:05;3.63;;;3.00;;
4939;SDS011;2485;49.326;7.214;2022-09-03T02:48:52;3.03;;;2.23;;
4939;SDS011;2485;49.326;7.214;2022-09-03T02:51:30;4.97;;;2.13;;
4939;SDS011;2485;49.326;7.214;2022-09-03T02:54:16;2.63;;;2.10;;
4939;SDS011;2485;49.326;7.214;2022-09-03T02:57:10;2.57;;;2.20;;
4939;SDS011;2485;49.326;7.214;2022-09-03T02:59:48;4.20;;;2.37;;
4939;SDS011;2485;49.326;7.214;2022-09-03T03:05:25;6.53;;;2.30;;
4939;SDS011;2485;49.326;7.214;2022-09-03T03:07:58;2.97;;;2.20;;
4939;SDS011;2485;49.326;7.214;2022-09-03T03:13:29;3.07;;;2.53;;
4939;SDS011;2485;49.326;7.214;2022-09-03T03:16:04;5.00;;;2.50;;
4939;SDS011;2485;49.326;7.214;2022-09-03T03:18:35;3.77;;;2.33;;
4939;SDS011;2485;49.326;7.214;2022-09-03T03:21:13;4.03;;;2.97;;
4939;SDS011;2485;49.326;7.214;2022-09-03T03:23:45;3.37;;;2.40;;
4939;SDS011;2485;49.326;7.214;2022-09-03T03:26:27;4.47;;;3.10;;
4939;SDS011;2485;49.326;7.214;2022-09-03T03:29:15;6.33;;;2.70;;
4939;SDS011;2485;49.326;7.214;2022-09-03T03:31:56;3.77;;;2.70;;
4939;SDS011;2485;49.326;7.214;2022-09-03T03:34:27;4.70;;;2.70;;
4939;SDS011;2485;49.326;7.214;2022-09-03T03:37:08;9.63;;;3.00;;
4939;SDS011;2485;49.326;7.214;2022-09-03T03:39:38;4.37;;;3.40;;
4939;SDS011;2485;49.326;7.214;2022-09-03T03:48:26;4.10;;;3.20;;
4939;SDS011;2485;49.326;7.214;2022-09-03T03:51:27;6.43;;;3.70;;
4939;SDS011;2485;49.326;7.214;2022-09-03T03:54:12;4.40;;;3.03;;
4939;SDS011;2485;49.326;7.214;2022-09-03T03:56:43;7.53;;;3.60;;
4939;SDS011;2485;49.326;7.214;2022-09-03T04:02:10;6.77;;;3.23;;
4939;SDS011;2485;49.326;7.214;2022-09-03T04:04:41;3.80;;;3.37;;
4939;SDS011;2485;49.326;7.214;2022-09-03T04:07:30;3.93;;;3.53;;
4939;SDS011;2485;49.326;7.214;2022-09-03T04:10:23;4.23;;;3.10;;
4939;SDS011;2485;49.326;7.214;2022-09-03T04:13:01;4.47;;;3.57;;
4939;SDS011;2485;49.326;7.214;2022-09-03T04:15:42;7.60;;;3.63;;
4939;SDS011;2485;49.326;7.214;2022-09-03T04:18:22;5.53;;;4.00;;
4939;SDS011;2485;49.326;7.214;2022-09-03T04:21:04;6.37;;;3.60;;
4939;SDS011;2485;49.326;7.214;2022-09-03T04:23:38;4.07;;;3.67;;
4939;SDS011;2485;49.326;7.214;2022-09-03T04:26:14;4.30;;;3.90;;
4939;SDS011;2485;49.326;7.214;2022-09-03T04:28:44;4.80;;;4.10;;
4939;SDS011;2485;49.326;7.214;2022-09-03T04:31:12;4.70;;;3.60;;
4939;SDS011;2485;49.326;7.214;2022-09-03T04:33:43;6.20;;;3.80;;
4939;SDS011;2485;49.326;7.214;2022-09-03T04:36:24;4.20;;;3.27;;
4939;SDS011;2485;49.326;7.214;2022-09-03T04:38:58;5.43;;;3.53;;
4939;SDS011;2485;49.326;7.214;2022-09-03T05:05:45;6.70;;;5.30;;
4939;SDS011;2485;49.326;7.214;2022-09-03T05:14:35;11.83;;;6.30;;
4939;SDS011;2485;49.326;7.214;2022-09-03T05:17:19;7.97;;;6.03;;
4939;SDS011;2485;49.326;7.214;2022-09-03T05:20:04;12.73;;;6.70;;
4939;SDS011;2485;49.326;7.214;2022-09-03T05:29:12;11.67;;;6.73;;
4939;SDS011;2485;49.326;7.214;2022-09-03T05:31:58;10.57;;;7.57;;
4939;SDS011;2485;49.326;7.214;2022-09-03T05:35:04;12.50;;;7.83;;
4939;SDS011;2485;49.326;7.214;2022-09-03T05:37:44;9.80;;;7.40;;
4939;SDS011;2485;49.326;7.214;2022-09-03T05:40:15;15.03;;;7.70;;
4939;SDS011;2485;49.326;7.214;2022-09-03T05:42:43;15.40;;;9.03;;
4939;SDS011;2485;49.326;7.214;2022-09-03T05:45:11;13.10;;;8.10;;
4939;SDS011;2485;49.326;7.214;2022-09-03T05:47:38;14.77;;;8.20;;
4939;SDS011;2485;49.326;7.214;2022-09-03T05:50:06;13.80;;;7.93;;
4939;SDS011;2485;49.326;7.214;2022-09-03T05:52:37;8.63;;;7.73;;
4939;SDS011;2485;49.326;7.214;2022-09-03T05:56:48;12.07;;;7.97;;
4939;SDS011;2485;49.326;7.214;2022-09-03T05:58:32;12.53;;;8.43;;
4939;SDS011;2485;49.326;7.214;2022-09-03T06:01:01;8.60;;;6.70;;
4939;SDS011;2485;49.326;7.214;2022-09-03T06:03:52;9.90;;;7.60;;
4939;SDS011;2485;49.326;7.214;2022-09-03T06:06:19;9.77;;;8.20;;
4939;SDS011;2485;49.326;7.214;2022-09-03T06:08:49;11.47;;;8.10;;
4939;SDS011;2485;49.326;7.214;2022-09-03T06:11:22;9.13;;;7.50;;
4939;SDS011;2485;49.326;7.214;2022-09-03T06:14:00;12.90;;;8.23;;
4939;SDS011;2485;49.326;7.214;2022-09-03T06:16:30;15.63;;;7.73;;
4939;SDS011;2485;49.326;7.214;2022-09-03T06:18:58;11.47;;;7.80;;
4939;SDS011;2485;49.326;7.214;2022-09-03T06:21:25;12.07;;;7.77;;
4939;SDS011;2485;49.326;7.214;2022-09-03T06:23:52;14.00;;;9.33;;
4939;SDS011;2485;49.326;7.214;2022-09-03T06:26:20;16.73;;;7.97;;
4939;SDS011;2485;49.326;7.214;2022-09-03T06:28:51;13.63;;;8.00;;
4939;SDS011;2485;49.326;7.214;2022-09-03T06:31:27;10.70;;;8.47;;
4939;SDS011;2485;49.326;7.214;2022-09-03T06:34:12;9.67;;;8.13;;
4939;SDS011;2485;49.326;7.214;2022-09-03T06:36:40;11.83;;;8.23;;
4939;SDS011;2485;49.326;7.214;2022-09-03T06:41:57;12.77;;;7.70;;
4939;SDS011;2485;49.326;7.214;2022-09-03T06:44:27;9.67;;;6.93;;
4939;SDS011;2485;49.326;7.214;2022-09-03T06:50:09;9.23;;;7.80;;
4939;SDS011;2485;49.326;7.214;2022-09-03T06:52:39;10.17;;;8.10;;
4939;SDS011;2485;49.326;7.214;2022-09-03T06:55:07;13.27;;;8.70;;
4939;SDS011;2485;49.326;7.214;2022-09-03T07:00:23;12.60;;;8.90;;
4939;SDS011;2485;49.326;7.214;2022-09-03T07:02:55;11.50;;;9.20;;
4939;SDS011;2485;49.326;7.214;2022-09-03T07:05:27;10.47;;;8.30;;
4939;SDS011;2485;49.326;7.214;2022-09-03T07:07:57;13.60;;;8.43;;
4939;SDS011;2485;49.326;7.214;2022-09-03T07:10:50;10.90;;;8.97;;
4939;SDS011;2485;49.326;7.214;2022-09-03T07:13:38;15.67;;;9.83;;
4939;SDS011;2485;49.326;7.214;2022-09-03T07:16:11;9.63;;;8.03;;
4939;SDS011;2485;49.326;7.214;2022-09-03T07:18:45;10.43;;;8.47;;
4939;SDS011;2485;49.326;7.214;2022-09-03T07:21:18;10.97;;;8.00;;
4939;SDS011;2485;49.326;7.214;2022-09-03T07:26:57;12.27;;;8.77;;
4939;SDS011;2485;49.326;7.214;2022-09-03T07:29:24;9.33;;;7.80;;
4939;SDS011;2485;49.326;7.214;2022-09-03T07:34:46;10.30;;;8.03;;
4939;SDS011;2485;49.326;7.214;2022-09-03T07:37:32;9.83;;;8.83;;
4939;SDS011;2485;49.326;7.214;2022-09-03T07:40:07;11.77;;;9.20;;
4939;SDS011;2485;49.326;7.214;2022-09-03T07:42:48;10.30;;;8.83;;
4939;SDS011;2485;49.326;7.214;2022-09-03T07:45:18;12.50;;;9.20;;
4939;SDS011;2485;49.326;7.214;2022-09-03T07:47:50;16.87;;;11.60;;
4939;SDS011;2485;49.326;7.214;2022-09-03T07:53:29;10.03;;;6.60;;
4939;SDS011;2485;49.326;7.214;2022-09-03T07:56:30;12.63;;;7.10;;
4939;SDS011;2485;49.326;7.214;2022-09-03T07:59:29;7.47;;;6.30;;
4939;SDS011;2485;49.326;7.214;2022-09-03T08:02:16;7.60;;;6.80;;
4939;SDS011;2485;49.326;7.214;2022-09-03T08:04:57;8.47;;;6.87;;
4939;SDS011;2485;49.326;7.214;2022-09-03T08:13:57;9.57;;;6.47;;
4939;SDS011;2485;49.326;7.214;2022-09-03T08:16:31;7.40;;;6.40;;
4939;SDS011;2485;49.326;7.214;2022-09-03T08:19:04;7.40;;;6.00;;
4939;SDS011;2485;49.326;7.214;2022-09-03T08:21:56;9.73;;;6.30;;
4939;SDS011;2485;49.326;7.214;2022-09-03T08:24:38;8.67;;;5.30;;
4939;SDS011;2485;49.326;7.214;2022-09-03T08:33:06;7.87;;;4.87;;
4939;SDS011;2485;49.326;7.214;2022-09-03T08:35:34;5.47;;;4.97;;
4939;SDS011;2485;49.326;7.214;2022-09-03T08:38:04;6.57;;;4.80;;
4939;SDS011;2485;49.326;7.214;2022-09-03T08:40:33;7.80;;;5.13;;
4939;SDS011;2485;49.326;7.214;2022-09-03T08:43:17;6.87;;;5.40;;
4939;SDS011;2485;49.326;7.214;2022-09-03T08:48:46;4.87;;;4.37;;
4939;SDS011;2485;49.326;7.214;2022-09-03T08:51:13;6.47;;;4.10;;
4939;SDS011;2485;49.326;7.214;2022-09-03T08:53:44;6.60;;;4.50;;
4939;SDS011;2485;49.326;7.214;2022-09-03T08:56:26;7.23;;;4.20;;
4939;SDS011;2485;49.326;7.214;2022-09-03T08:59:17;5.43;;;4.70;;
4939;SDS011;2485;49.326;7.214;2022-09-03T09:01:50;5.50;;;4.93;;
4939;SDS011;2485;49.326;7.214;2022-09-03T09:07:26;5.00;;;4.50;;
4939;SDS011;2485;49.326;7.214;2022-09-03T09:09:58;6.70;;;5.03;;
4939;SDS011;2485;49.326;7.214;2022-09-03T09:12:34;5.37;;;4.47;;
4939;SDS011;2485;49.326;7.214;2022-09-03T09:15:10;8.13;;;3.90;;
4939;SDS011;2485;49.326;7.214;2022-09-03T09:17:58;6.30;;;3.83;;
4939;SDS011;2485;49.326;7.214;2022-09-03T09:20:35;5.83;;;3.70;;
4939;SDS011;2485;49.326;7.214;2022-09-03T09:26:19;5.77;;;4.10;;
4939;SDS011;2485;49.326;7.214;2022-09-03T09:29:01;3.80;;;3.30;;
4939;SDS011;2485;49.326;7.214;2022-09-03T09:31:35;5.20;;;3.20;;
4939;SDS011;2485;49.326;7.214;2022-09-03T09:34:20;3.40;;;3.10;;
4939;SDS011;2485;49.326;7.214;2022-09-03T09:36:51;4.90;;;3.17;;
4939;SDS011;2485;49.326;7.214;2022-09-03T09:45:21;4.50;;;3.17;;
4939;SDS011;2485;49.326;7.214;2022-09-03T09:51:05;3.50;;;3.20;;
4939;SDS011;2485;49.326;7.214;2022-09-03T09:53:44;3.30;;;3.00;;
4939;SDS011;2485;49.326;7.214;2022-09-03T09:56:34;6.47;;;3.10;;
4939;SDS011;2485;49.326;7.214;2022-09-03T09:59:04;3.30;;;2.70;;
4939;SDS011;2485;49.326;7.214;2022-09-03T10:01:37;3.77;;;3.47;;
4939;SDS011;2485;49.326;7.214;2022-09-03T10:04:23;3.83;;;3.10;;
4939;SDS011;2485;49.326;7.214;2022-09-03T10:06:52;5.07;;;3.10;;
4939;SDS011;2485;49.326;7.214;2022-09-03T10:09:22;3.17;;;2.87;;
4939;SDS011;2485;49.326;7.214;2022-09-03T10:11:55;3.23;;;2.93;;
4939;SDS011;2485;49.326;7.214;2022-09-03T10:14:41;3.30;;;2.80;;
4939;SDS011;2485;49.326;7.214;2022-09-03T10:20:23;3.40;;;3.10;;
4939;SDS011;2485;49.326;7.214;2022-09-03T10:28:26;3.87;;;2.90;;
4939;SDS011;2485;49.326;7.214;2022-09-03T10:31:17;2.87;;;2.57;;
4939;SDS011;2485;49.326;7.214;2022-09-03T10:36:32;4.50;;;3.13;;
4939;SDS011;2485;49.326;7.214;2022-09-03T10:39:18;2.80;;;2.60;;
4939;SDS011;2485;49.326;7.214;2022-09-03T10:41:58;2.77;;;2.53;;
4939;SDS011;2485;49.326;7.214;2022-09-03T10:45:02;3.43;;;2.77;;
4939;SDS011;2485;49.326;7.214;2022-09-03T10:47:56;3.10;;;2.80;;
4939;SDS011;2485;49.326;7.214;2022-09-03T10:50:39;4.13;;;2.90;;
4939;SDS011;2485;49.326;7.214;2022-09-03T10:53:23;4.33;;;2.90;;
4939;SDS011;2485;49.326;7.214;2022-09-03T10:55:55;3.20;;;2.90;;
4939;SDS011;2485;49.326;7.214;2022-09-03T10:58:29;3.40;;;3.10;;
4939;SDS011;2485;49.326;7.214;2022-09-03T11:02:02;2.77;;;2.50;;
4939;SDS011;2485;49.326;7.214;2022-09-03T11:04:24;2.67;;;2.47;;
4939;SDS011;2485;49.326;7.214;2022-09-03T11:10:00;3.87;;;2.77;;
4939;SDS011;2485;49.326;7.214;2022-09-03T11:12:31;5.20;;;2.47;;
4939;SDS011;2485;49.326;7.214;2022-09-03T11:15:12;2.70;;;2.50;;
4939;SDS011;2485;49.326;7.214;2022-09-03T11:17:47;5.20;;;3.00;;
4939;SDS011;2485;49.326;7.214;2022-09-03T11:20:17;5.20;;;3.03;;
4939;SDS011;2485;49.326;7.214;2022-09-03T11:22:48;3.30;;;2.90;;
4939;SDS011;2485;49.326;7.214;2022-09-03T11:25:18;3.20;;;2.90;;
4939;SDS011;2485;49.326;7.214;2022-09-03T11:28:10;3.63;;;2.67;;
4939;SDS011;2485;49.326;7.214;2022-09-03T11:30:47;4.20;;;3.10;;
4939;SDS011;2485;49.326;7.214;2022-09-03T11:35:55;3.10;;;2.80;;
4939;SDS011;2485;49.326;7.214;2022-09-03T11:41:22;3.30;;;2.93;;
4939;SDS011;2485;49.326;7.214;2022-09-03T11:49:26;4.43;;;2.90;;
4939;SDS011;2485;49.326;7.214;2022-09-03T11:52:25;4.17;;;3.20;;
4939;SDS011;2485;49.326;7.214;2022-09-03T11:54:59;2.97;;;2.70;;
4939;SDS011;2485;49.326;7.214;2022-09-03T12:03:14;3.80;;;2.87;;
4939;SDS011;2485;49.326;7.214;2022-09-03T12:05:50;3.67;;;2.90;;
4939;SDS011;2485;49.326;7.214;2022-09-03T12:39:54;3.70;;;2.10;;
4939;SDS011;2485;49.326;7.214;2022-09-03T12:48:41;3.00;;;2.70;;
4939;SDS011;2485;49.326;7.214;2022-09-03T12:56:52;2.87;;;2.67;;
4939;SDS011;2485;49.326;7.214;2022-09-03T13:03:04;2.80;;;2.43;;
4939;SDS011;2485;49.326;7.214;2022-09-03T13:28:37;2.97;;;2.40;;
4939;SDS011;2485;49.326;7.214;2022-09-03T13:31:21;3.40;;;2.80;;
4939;SDS011;2485;49.326;7.214;2022-09-03T13:33:56;4.07;;;2.80;;
4939;SDS011;2485;49.326;7.214;2022-09-03T13:36:44;3.97;;;3.10;;
4939;SDS011;2485;49.326;7.214;2022-09-03T13:39:25;2.80;;;2.60;;
4939;SDS011;2485;49.326;7.214;2022-09-03T13:42:01;4.93;;;3.10;;
4939;SDS011;2485;49.326;7.214;2022-09-03T13:44:44;3.20;;;2.67;;
4939;SDS011;2485;49.326;7.214;2022-09-03T13:47:19;5.27;;;3.80;;
4939;SDS011;2485;49.326;7.214;2022-09-03T13:49:52;5.67;;;3.63;;
4939;SDS011;2485;49.326;7.214;2022-09-03T13:52:38;4.47;;;3.60;;
4939;SDS011;2485;49.326;7.214;2022-09-03T13:55:13;3.80;;;3.50;;
4939;SDS011;2485;49.326;7.214;2022-09-03T14:03:56;4.63;;;2.63;;
4939;SDS011;2485;49.326;7.214;2022-09-03T14:06:35;3.40;;;2.70;;
4939;SDS011;2485;49.326;7.214;2022-09-03T14:09:13;2.53;;;2.30;;
4939;SDS011;2485;49.326;7.214;2022-09-03T14:12:04;4.07;;;2.73;;
4939;SDS011;2485;49.326;7.214;2022-09-03T14:14:38;4.30;;;2.73;;
4939;SDS011;2485;49.326;7.214;2022-09-03T14:17:09;4.00;;;2.60;;
4939;SDS011;2485;49.326;7.214;2022-09-03T14:19:41;2.47;;;2.27;;
4939;SDS011;2485;49.326;7.214;2022-09-03T14:22:12;4.70;;;2.60;;
4939;SDS011;2485;49.326;7.214;2022-09-03T14:24:45;4.70;;;2.73;;
4939;SDS011;2485;49.326;7.214;2022-09-03T14:27:21;4.57;;;3.50;;
4939;SDS011;2485;49.326;7.214;2022-09-03T14:29:57;5.27;;;2.90;;
4939;SDS011;2485;49.326;7.214;2022-09-03T14:35:22;3.47;;;2.70;;
4939;SDS011;2485;49.326;7.214;2022-09-03T14:40:35;2.77;;;2.40;;
4939;SDS011;2485;49.326;7.214;2022-09-03T14:43:10;2.40;;;2.00;;
4939;SDS011;2485;49.326;7.214;2022-09-03T14:45:47;4.23;;;1.90;;
4939;SDS011;2485;49.326;7.214;2022-09-03T14:48:35;2.60;;;2.00;;
4939;SDS011;2485;49.326;7.214;2022-09-03T14:57:06;3.33;;;2.00;;
4939;SDS011;2485;49.326;7.214;2022-09-03T15:02:59;2.40;;;2.20;;
4939;SDS011;2485;49.326;7.214;2022-09-03T15:05:40;2.20;;;2.00;;
4939;SDS011;2485;49.326;7.214;2022-09-03T15:08:10;2.30;;;2.10;;
4939;SDS011;2485;49.326;7.214;2022-09-03T15:10:47;2.70;;;2.27;;
4939;SDS011;2485;49.326;7.214;2022-09-03T15:13:28;2.50;;;2.30;;
4939;SDS011;2485;49.326;7.214;2022-09-03T15:16:01;3.73;;;2.30;;
4939;SDS011;2485;49.326;7.214;2022-09-03T15:18:37;3.40;;;3.10;;
4939;SDS011;2485;49.326;7.214;2022-09-03T15:21:19;3.27;;;2.50;;
4939;SDS011;2485;49.326;7.214;2022-09-03T15:24:06;3.10;;;2.20;;
4939;SDS011;2485;49.326;7.214;2022-09-03T15:27:08;3.77;;;2.20;;
4939;SDS011;2485;49.326;7.214;2022-09-03T15:29:48;2.47;;;2.10;;
4939;SDS011;2485;49.326;7.214;2022-09-03T15:32:29;2.27;;;2.07;;
4939;SDS011;2485;49.326;7.214;2022-09-03T15:35:05;2.33;;;2.13;;
4939;SDS011;2485;49.326;7.214;2022-09-03T15:37:35;3.03;;;2.00;;
4939;SDS011;2485;49.326;7.214;2022-09-03T15:40:04;4.57;;;2.10;;
4939;SDS011;2485;49.326;7.214;2022-09-03T15:42:32;3.23;;;2.00;;
4939;SDS011;2485;49.326;7.214;2022-09-03T15:45:06;2.37;;;2.17;;
4939;SDS011;2485;49.326;7.214;2022-09-03T15:47:39;3.40;;;2.73;;
4939;SDS011;2485;49.326;7.214;2022-09-03T15:50:23;2.60;;;2.23;;
4939;SDS011;2485;49.326;7.214;2022-09-03T15:53:13;2.73;;;2.53;;
4939;SDS011;2485;49.326;7.214;2022-09-03T15:55:49;2.70;;;2.43;;
4939;SDS011;2485;49.326;7.214;2022-09-03T15:58:27;3.37;;;2.47;;
4939;SDS011;2485;49.326;7.214;2022-09-03T16:01:08;2.30;;;2.10;;
4939;SDS011;2485;49.326;7.214;2022-09-03T16:03:37;3.70;;;2.30;;
4939;SDS011;2485;49.326;7.214;2022-09-03T16:06:15;4.10;;;2.30;;
4939;SDS011;2485;49.326;7.214;2022-09-03T16:11:49;2.37;;;2.17;;
4939;SDS011;2485;49.326;7.214;2022-09-03T16:14:25;2.43;;;2.10;;
4939;SDS011;2485;49.326;7.214;2022-09-03T16:17:15;2.63;;;2.30;;
4939;SDS011;2485;49.326;7.214;2022-09-03T16:19:45;3.23;;;2.30;;
4939;SDS011;2485;49.326;7.214;2022-09-03T16:22:28;2.43;;;2.23;;
4939;SDS011;2485;49.326;7.214;2022-09-03T16:24:58;2.20;;;2.00;;
4939;SDS011;2485;49.326;7.214;2022-09-03T16:27:33;2.57;;;2.37;;
4939;SDS011;2485;49.326;7.214;2022-09-03T16:30:06;2.30;;;2.10;;
4939;SDS011;2485;49.326;7.214;2022-09-03T16:35:30;2.43;;;2.23;;
4939;SDS011;2485;49.326;7.214;2022-09-03T16:38:07;1.90;;;1.80;;
4939;SDS011;2485;49.326;7.214;2022-09-03T16:40:40;2.93;;;2.00;;
4939;SDS011;2485;49.326;7.214;2022-09-03T16:46:09;3.03;;;2.10;;
4939;SDS011;2485;49.326;7.214;2022-09-03T16:48:40;4.27;;;2.17;;
4939;SDS011;2485;49.326;7.214;2022-09-03T16:51:15;2.30;;;2.10;;
4939;SDS011;2485;49.326;7.214;2022-09-03T16:53:49;3.37;;;2.47;;
4939;SDS011;2485;49.326;7.214;2022-09-03T16:56:31;3.87;;;2.80;;
4939;SDS011;2485;49.326;7.214;2022-09-03T16:59:07;3.87;;;3.50;;
4939;SDS011;2485;49.326;7.214;2022-09-03T17:01:39;3.60;;;2.80;;
4939;SDS011;2485;49.326;7.214;2022-09-03T17:07:16;3.20;;;2.87;;
4939;SDS011;2485;49.326;7.214;2022-09-03T17:09:53;3.00;;;2.70;;
4939;SDS011;2485;49.326;7.214;2022-09-03T17:12:27;5.67;;;3.60;;
4939;SDS011;2485;49.326;7.214;2022-09-03T17:15:07;3.83;;;2.90;;
4939;SDS011;2485;49.326;7.214;2022-09-03T17:26:20;4.30;;;3.00;;
4939;SDS011;2485;49.326;7.214;2022-09-03T17:28:54;3.20;;;2.57;;
4939;SDS011;2485;49.326;7.214;2022-09-03T17:31:25;4.27;;;3.03;;
4939;SDS011;2485;49.326;7.214;2022-09-03T17:34:01;2.63;;;2.43;;
4939;SDS011;2485;49.326;7.214;2022-09-03T17:36:36;4.80;;;3.13;;
4939;SDS011;2485;49.326;7.214;2022-09-03T17:39:22;5.40;;;3.10;;
4939;SDS011;2485;49.326;7.214;2022-09-03T17:41:59;6.63;;;2.63;;
4939;SDS011;2485;49.326;7.214;2022-09-03T17:44:33;6.67;;;3.70;;
4939;SDS011;2485;49.326;7.214;2022-09-03T17:47:06;5.97;;;3.30;;
4939;SDS011;2485;49.326;7.214;2022-09-03T17:49:40;5.70;;;3.60;;
4939;SDS011;2485;49.326;7.214;2022-09-03T17:52:19;5.70;;;4.10;;
4939;SDS011;2485;49.326;7.214;2022-09-03T17:54:48;5.53;;;4.00;;
4939;SDS011;2485;49.326;7.214;2022-09-03T17:57:18;5.43;;;3.50;;
4939;SDS011;2485;49.326;7.214;2022-09-03T17:59:51;7.93;;;4.47;;
4939;SDS011;2485;49.326;7.214;2022-09-03T18:02:25;5.47;;;4.20;;
4939;SDS011;2485;49.326;7.214;2022-09-03T18:04:53;4.37;;;3.97;;
4939;SDS011;2485;49.326;7.214;2022-09-03T18:07:25;7.73;;;4.20;;
4939;SDS011;2485;49.326;7.214;2022-09-03T18:10:03;5.03;;;4.37;;
4939;SDS011;2485;49.326;7.214;2022-09-03T18:12:37;7.17;;;4.43;;
4939;SDS011;2485;49.326;7.214;2022-09-03T18:15:25;4.53;;;4.00;;
4939;SDS011;2485;49.326;7.214;2022-09-03T18:18:06;7.03;;;3.90;;
4939;SDS011;2485;49.326;7.214;2022-09-03T18:20:44;6.40;;;5.00;;
4939;SDS011;2485;49.326;7.214;2022-09-03T18:23:31;4.53;;;4.13;;
4939;SDS011;2485;49.326;7.214;2022-09-03T18:26:19;3.67;;;3.27;;
4939;SDS011;2485;49.326;7.214;2022-09-03T18:29:08;8.60;;;4.30;;
4939;SDS011;2485;49.326;7.214;2022-09-03T18:32:12;4.07;;;3.67;;
4939;SDS011;2485;49.326;7.214;2022-09-03T18:34:56;5.53;;;3.87;;
4939;SDS011;2485;49.326;7.214;2022-09-03T18:37:40;5.53;;;4.07;;
4939;SDS011;2485;49.326;7.214;2022-09-03T18:40:26;5.57;;;4.30;;
4939;SDS011;2485;49.326;7.214;2022-09-03T18:43:12;5.37;;;4.77;;
4939;SDS011;2485;49.326;7.214;2022-09-03T18:46:05;10.60;;;5.13;;
4939;SDS011;2485;49.326;7.214;2022-09-03T18:49:00;5.70;;;4.83;;
4939;SDS011;2485;49.326;7.214;2022-09-03T18:51:48;7.00;;;5.27;;
4939;SDS011;2485;49.326;7.214;2022-09-03T18:54:38;8.23;;;4.83;;
4939;SDS011;2485;49.326;7.214;2022-09-03T19:00:29;7.80;;;5.37;;
4939;SDS011;2485;49.326;7.214;2022-09-03T19:03:23;7.47;;;5.70;;
4939;SDS011;2485;49.326;7.214;2022-09-03T19:06:22;9.40;;;6.00;;
4939;SDS011;2485;49.326;7.214;2022-09-03T19:09:12;6.90;;;4.63;;
4939;SDS011;2485;49.326;7.214;2022-09-03T19:12:05;8.13;;;6.00;;
4939;SDS011;2485;49.326;7.214;2022-09-03T19:16:14;7.13;;;5.57;;
4939;SDS011;2485;49.326;7.214;2022-09-03T19:21:26;7.17;;;5.67;;
4939;SDS011;2485;49.326;7.214;2022-09-03T19:24:11;6.37;;;5.10;;
4939;SDS011;2485;49.326;7.214;2022-09-03T19:27:00;5.60;;;4.67;;
4939;SDS011;2485;49.326;7.214;2022-09-03T19:30:01;7.30;;;6.00;;
4939;SDS011;2485;49.326;7.214;2022-09-03T19:34:04;8.00;;;5.53;;
4939;SDS011;2485;49.326;7.214;2022-09-03T19:36:08;8.20;;;6.57;;
4939;SDS011;2485;49.326;7.214;2022-09-03T19:39:09;8.43;;;5.60;;
4939;SDS011;2485;49.326;7.214;2022-09-03T19:45:10;6.00;;;5.10;;
4939;SDS011;2485;49.326;7.214;2022-09-03T19:51:02;8.80;;;4.40;;
4939;SDS011;2485;49.326;7.214;2022-09-03T19:53:48;7.03;;;4.87;;
4939;SDS011;2485;49.326;7.214;2022-09-03T19:56:34;5.90;;;4.60;;
4939;SDS011;2485;49.326;7.214;2022-09-03T21:12:11;9.70;;;6.80;;
4939;SDS011;2485;49.326;7.214;2022-09-03T21:14:51;7.97;;;5.60;;
4939;SDS011;2485;49.326;7.214;2022-09-03T21:17:29;10.70;;;5.73;;
4939;SDS011;2485;49.326;7.214;2022-09-03T21:20:18;7.47;;;5.23;;
4939;SDS011;2485;49.326;7.214;2022-09-03T21:25:37;7.27;;;5.67;;
4939;SDS011;2485;49.326;7.214;2022-09-03T22:51:26;151.90;;;13.80;;
4939;SDS011;2485;49.326;7.214;2022-09-03T22:54:28;103.83;;;10.53;;
4939;SDS011;2485;49.326;7.214;2022-09-03T22:57:56;93.50;;;12.97;;
4939;SDS011;2485;49.326;7.214;2022-09-03T23:03:49;80.23;;;12.27;;
